Fairbank, Arizona
Current Conditions -  °F | °C
As of 1:54 PM on Thursday 23 Oct 2014 (Local Time) from KOLS Reporting Station
Clear Clear  
Wind Chill: 85°   Ceiling: Unl
Heat Index: 85°   Visibility: 10mi
Dew Point: 43°   Wind: 7mph
Humidity: 23%   Direction: 220°SW
Pressure: 30.1"   Gusts: NA
Location:  31.4355°N, 110.967°W
Report Text: KOLS 232054Z AUTO 22006KT 10SM CLR 29/06 A3010 RMK AO2 SLP137 T02940061 56022
Loading
Personal Weather Stations






























Interactive Weather Map
Tropical Storm Tracking
New forecast layout! Learn more

10-Day Weather Forecast

Advertisements
Track Severe Weather on mobile